Portada
METAR-TAF:

METAR-TAF

Aeroports :

Muskegon County Airport

Muskegon, Michigan, Estats Units d'Amèrica

latitud: 43-10-16N, longitud: 086-14-12W, altitud: 191 m

Observació

L'informe es va fer fa 51 minuts, a les 08:55 UTC
Vent 5 kt del Oest
Temperatura 7°C
Humitat 66%
Pressió 1017 hPa
Visibilitat: 16.1 km
Cel clar

METAR: KMKG 220855Z AUTO 26005KT 10SM CLR 07/01 A3002 RMK AO2 SLP171 T00720011 56006

Hora: 05:46 (09:46 UTC)

Pronòstic

L'informe es va fer fa 4 hores i 11 minuts, a les 05:35 UTC
Pronòstic vàlid del 22 a les 06 UTC al 23 a les 06 UTC
Vent 7 kt del Oest
Visibilitat: 10 km
Escasses núvols a una alçada de 25000 ft
A partir de les 23 a les 0400 UTC
Vent 12 kt del Oest/Nord-Oest amb ràfegues de 22 kt
Visibilitat: 10 km
Cel clar

TAF: KMKG 220535Z 2206/2306 28007KT P6SM FEW250 FM230400 30012G22KT P6SM SKC

Observacions i pronòstics meteorològics de més de 4000 aeroports (METAR i TAF).

Les estacions disponibles són els punts grocs i vermells al mapa.

Posi el ratolí al punt desitjat per veure el nom de l'estació.

Feu clic per veure les observacions i els pronòstics meteorològics.

Per canviar el mapa: feu clic els botons verds amb una creu de color negre per apropar; al botó verd amb un guió per allunyar la imatge; o en les fletxes verdes per a mapes adjacents.


METAR-TAF: